sensor_id;sensor_type;location;lat;lon;timestamp;pressure;altitude;pressure_sealevel;temperature;humidity
27425;BME280;15244;49.088;11.886;2023-03-19T00:02:26;95505.22;;;13.57;40.28
27425;BME280;15244;49.088;11.886;2023-03-19T00:07:27;95504.88;;;13.52;40.38
27425;BME280;15244;49.088;11.886;2023-03-19T00:12:29;95498.69;;;13.44;40.28
27425;BME280;15244;49.088;11.886;2023-03-19T00:17:30;95499.97;;;13.36;40.43
27425;BME280;15244;49.088;11.886;2023-03-19T00:22:32;95500.00;;;13.32;40.93
27425;BME280;15244;49.088;11.886;2023-03-19T00:27:35;95501.59;;;13.30;40.88
27425;BME280;15244;49.088;11.886;2023-03-19T00:32:37;95497.72;;;13.27;41.11
27425;BME280;15244;49.088;11.886;2023-03-19T00:37:40;95504.72;;;13.28;41.11
27425;BME280;15244;49.088;11.886;2023-03-19T00:42:42;95501.59;;;13.26;41.21
27425;BME280;15244;49.088;11.886;2023-03-19T00:47:45;95507.50;;;13.25;41.07
27425;BME280;15244;49.088;11.886;2023-03-19T00:52:47;95496.94;;;13.23;41.48
27425;BME280;15244;49.088;11.886;2023-03-19T00:57:48;95497.31;;;13.21;41.45
27425;BME280;15244;49.088;11.886;2023-03-19T01:02:50;95490.72;;;13.19;41.33
27425;BME280;15244;49.088;11.886;2023-03-19T01:07:52;95496.19;;;13.19;41.27
27425;BME280;15244;49.088;11.886;2023-03-19T01:12:53;95492.28;;;13.16;41.30
27425;BME280;15244;49.088;11.886;2023-03-19T01:17:55;95491.16;;;13.14;41.33
27425;BME280;15244;49.088;11.886;2023-03-19T01:22:57;95492.72;;;13.11;41.46
27425;BME280;15244;49.088;11.886;2023-03-19T01:27:59;95490.81;;;13.08;41.17
27425;BME280;15244;49.088;11.886;2023-03-19T01:33:00;95496.72;;;13.07;41.78
27425;BME280;15244;49.088;11.886;2023-03-19T01:38:20;95495.94;;;13.02;41.69
27425;BME280;15244;49.088;11.886;2023-03-19T01:43:28;95496.00;;;12.99;41.69
27425;BME280;15244;49.088;11.886;2023-03-19T01:48:53;95491.72;;;12.94;41.87
27425;BME280;15244;49.088;11.886;2023-03-19T01:53:58;95484.34;;;12.91;41.90
27425;BME280;15244;49.088;11.886;2023-03-19T01:59:17;95485.53;;;12.87;41.66
27425;BME280;15244;49.088;11.886;2023-03-19T02:04:42;95492.22;;;12.82;41.92
27425;BME280;15244;49.088;11.886;2023-03-19T02:09:45;95488.72;;;12.78;42.07
27425;BME280;15244;49.088;11.886;2023-03-19T02:14:47;95498.50;;;12.75;41.79
27425;BME280;15244;49.088;11.886;2023-03-19T02:25:22;95499.81;;;12.64;41.69
27425;BME280;15244;49.088;11.886;2023-03-19T02:30:31;95508.44;;;12.55;41.91
27425;BME280;15244;49.088;11.886;2023-03-19T02:35:39;95511.25;;;12.44;41.78
27425;BME280;15244;49.088;11.886;2023-03-19T02:41:00;95512.09;;;12.34;41.78
27425;BME280;15244;49.088;11.886;2023-03-19T02:46:03;95510.22;;;12.24;42.23
27425;BME280;15244;49.088;11.886;2023-03-19T02:51:06;95507.50;;;12.17;42.37
27425;BME280;15244;49.088;11.886;2023-03-19T02:56:07;95490.34;;;12.12;42.58
27425;BME280;15244;49.088;11.886;2023-03-19T03:01:09;95495.44;;;12.07;42.65
27425;BME280;15244;49.088;11.886;2023-03-19T03:06:11;95506.41;;;12.03;42.72
27425;BME280;15244;49.088;11.886;2023-03-19T03:11:14;95509.16;;;12.03;43.13
27425;BME280;15244;49.088;11.886;2023-03-19T03:16:15;95513.03;;;12.02;42.64
27425;BME280;15244;49.088;11.886;2023-03-19T03:21:17;95508.75;;;12.01;43.28
27425;BME280;15244;49.088;11.886;2023-03-19T03:26:21;95517.72;;;12.02;42.99
27425;BME280;15244;49.088;11.886;2023-03-19T03:31:23;95531.81;;;12.00;43.37
27425;BME280;15244;49.088;11.886;2023-03-19T03:36:25;95541.16;;;11.99;43.12
27425;BME280;15244;49.088;11.886;2023-03-19T03:41:27;95547.81;;;11.98;43.26
27425;BME280;15244;49.088;11.886;2023-03-19T03:46:29;95547.03;;;11.94;43.30
27425;BME280;15244;49.088;11.886;2023-03-19T03:51:31;95547.44;;;11.89;43.30
27425;BME280;15244;49.088;11.886;2023-03-19T03:56:33;95552.50;;;11.83;43.21
27425;BME280;15244;49.088;11.886;2023-03-19T04:01:35;95545.88;;;11.77;43.27
27425;BME280;15244;49.088;11.886;2023-03-19T04:06:55;95549.03;;;11.72;43.62
27425;BME280;15244;49.088;11.886;2023-03-19T04:12:14;95545.94;;;11.66;43.83
27425;BME280;15244;49.088;11.886;2023-03-19T04:17:16;95547.88;;;11.66;44.02
27425;BME280;15244;49.088;11.886;2023-03-19T04:22:19;95547.88;;;11.66;44.53
27425;BME280;15244;49.088;11.886;2023-03-19T04:27:21;95544.38;;;11.65;43.83
27425;BME280;15244;49.088;11.886;2023-03-19T04:32:22;95546.34;;;11.65;44.22
27425;BME280;15244;49.088;11.886;2023-03-19T04:37:25;95545.16;;;11.66;44.24
27425;BME280;15244;49.088;11.886;2023-03-19T04:42:27;95540.88;;;11.65;44.61
27425;BME280;15244;49.088;11.886;2023-03-19T04:47:46;95552.56;;;11.62;44.49
27425;BME280;15244;49.088;11.886;2023-03-19T04:52:47;95546.72;;;11.63;44.69
27425;BME280;15244;49.088;11.886;2023-03-19T04:57:50;95549.06;;;11.65;44.49
27425;BME280;15244;49.088;11.886;2023-03-19T05:02:54;95564.28;;;11.66;44.37
27425;BME280;15244;49.088;11.886;2023-03-19T05:07:56;95566.19;;;11.69;44.94
27425;BME280;15244;49.088;11.886;2023-03-19T05:12:59;95559.19;;;11.68;44.37
27425;BME280;15244;49.088;11.886;2023-03-19T05:18:01;95579.47;;;11.67;44.58
27425;BME280;15244;49.088;11.886;2023-03-19T05:23:11;95581.03;;;11.64;44.84
27425;BME280;15244;49.088;11.886;2023-03-19T05:28:36;95581.44;;;11.63;44.87
27425;BME280;15244;49.088;11.886;2023-03-19T05:33:38;95587.69;;;11.60;44.50
27425;BME280;15244;49.088;11.886;2023-03-19T05:38:40;95597.44;;;11.61;44.76
27425;BME280;15244;49.088;11.886;2023-03-19T05:43:47;95592.75;;;11.61;45.07
27425;BME280;15244;49.088;11.886;2023-03-19T05:49:04;95607.97;;;11.62;45.20
27425;BME280;15244;49.088;11.886;2023-03-19T05:54:06;95604.06;;;11.63;44.89
27425;BME280;15244;49.088;11.886;2023-03-19T05:59:10;95615.00;;;11.63;45.34
27425;BME280;15244;49.088;11.886;2023-03-19T06:04:16;95604.06;;;11.63;45.21
27425;BME280;15244;49.088;11.886;2023-03-19T06:09:18;95617.72;;;11.63;45.76
27425;BME280;15244;49.088;11.886;2023-03-19T06:14:26;95630.59;;;11.63;45.84
27425;BME280;15244;49.088;11.886;2023-03-19T06:19:54;95637.63;;;11.67;45.49
27425;BME280;15244;49.088;11.886;2023-03-19T06:24:55;95645.00;;;11.67;45.64
27425;BME280;15244;49.088;11.886;2023-03-19T06:29:57;95654.78;;;11.68;45.48
27425;BME280;15244;49.088;11.886;2023-03-19T06:35:05;95647.75;;;11.67;45.84
27425;BME280;15244;49.088;11.886;2023-03-19T06:40:07;95656.72;;;11.67;45.99
27425;BME280;15244;49.088;11.886;2023-03-19T06:45:09;95668.81;;;11.70;45.98
27425;BME280;15244;49.088;11.886;2023-03-19T06:50:11;95671.91;;;11.72;46.12
27425;BME280;15244;49.088;11.886;2023-03-19T06:55:13;95683.25;;;11.74;46.25
27425;BME280;15244;49.088;11.886;2023-03-19T07:00:15;95683.25;;;11.74;46.52
27425;BME280;15244;49.088;11.886;2023-03-19T07:05:18;95684.81;;;11.75;47.36
27425;BME280;15244;49.088;11.886;2023-03-19T07:10:21;95684.00;;;11.75;47.56
27425;BME280;15244;49.088;11.886;2023-03-19T07:15:22;95692.59;;;11.77;47.18
27425;BME280;15244;49.088;11.886;2023-03-19T07:20:24;95699.22;;;11.79;46.87
27425;BME280;15244;49.088;11.886;2023-03-19T07:25:26;95708.59;;;11.85;46.58
27425;BME280;15244;49.088;11.886;2023-03-19T07:30:27;95709.38;;;11.82;46.44
27425;BME280;15244;49.088;11.886;2023-03-19T07:35:29;95709.38;;;11.86;46.46
27425;BME280;15244;49.088;11.886;2023-03-19T07:40:31;95716.41;;;11.87;46.90
27425;BME280;15244;49.088;11.886;2023-03-19T07:45:33;95723.06;;;11.93;46.71
27425;BME280;15244;49.088;11.886;2023-03-19T07:50:35;95728.88;;;12.02;46.65
27425;BME280;15244;49.088;11.886;2023-03-19T07:55:36;95733.56;;;12.09;47.36
27425;BME280;15244;49.088;11.886;2023-03-19T08:00:38;95735.50;;;12.19;47.26
27425;BME280;15244;49.088;11.886;2023-03-19T08:05:40;95727.69;;;12.25;47.44
27425;BME280;15244;49.088;11.886;2023-03-19T08:10:42;95729.25;;;12.29;47.49
27425;BME280;15244;49.088;11.886;2023-03-19T08:15:44;95730.00;;;12.37;47.13
27425;BME280;15244;49.088;11.886;2023-03-19T08:20:45;95731.16;;;12.47;47.33
27425;BME280;15244;49.088;11.886;2023-03-19T08:25:47;95732.28;;;12.56;47.25
27425;BME280;15244;49.088;11.886;2023-03-19T08:30:49;95735.00;;;12.64;47.21
27425;BME280;15244;49.088;11.886;2023-03-19T08:35:50;95744.75;;;12.72;47.46
27425;BME280;15244;49.088;11.886;2023-03-19T08:40:54;95749.03;;;12.76;47.75
27425;BME280;15244;49.088;11.886;2023-03-19T08:46:03;95748.19;;;12.87;47.63
27425;BME280;15244;49.088;11.886;2023-03-19T08:51:05;95748.19;;;12.94;47.92
27425;BME280;15244;49.088;11.886;2023-03-19T08:56:07;95739.94;;;12.97;47.68
27425;BME280;15244;49.088;11.886;2023-03-19T09:01:11;95742.28;;;12.99;47.47
27425;BME280;15244;49.088;11.886;2023-03-19T09:06:13;95742.69;;;12.97;47.98
27425;BME280;15244;49.088;11.886;2023-03-19T09:11:15;95744.22;;;12.98;48.15
27425;BME280;15244;49.088;11.886;2023-03-19T09:16:18;95749.69;;;13.02;48.25
27425;BME280;15244;49.088;11.886;2023-03-19T09:21:20;95764.50;;;13.08;48.23
27425;BME280;15244;49.088;11.886;2023-03-19T09:26:21;95770.34;;;13.17;48.13
27425;BME280;15244;49.088;11.886;2023-03-19T09:31:23;95778.53;;;13.25;48.27
27425;BME280;15244;49.088;11.886;2023-03-19T09:36:25;95784.38;;;13.30;48.29
27425;BME280;15244;49.088;11.886;2023-03-19T09:46:40;95798.00;;;13.41;48.44
27425;BME280;15244;49.088;11.886;2023-03-19T09:52:01;95790.22;;;13.39;48.85
27425;BME280;15244;49.088;11.886;2023-03-19T09:57:10;95794.84;;;13.46;48.81
27425;BME280;15244;49.088;11.886;2023-03-19T10:12:50;95806.06;;;13.66;49.39
27425;BME280;15244;49.088;11.886;2023-03-19T10:18:02;95811.09;;;13.75;49.22
27425;BME280;15244;49.088;11.886;2023-03-19T10:28:20;95813.81;;;13.78;49.56
27425;BME280;15244;49.088;11.886;2023-03-19T10:33:24;95807.16;;;13.79;50.06
27425;BME280;15244;49.088;11.886;2023-03-19T10:38:26;95802.81;;;13.82;49.72
27425;BME280;15244;49.088;11.886;2023-03-19T10:43:29;95814.56;;;13.86;49.61
27425;BME280;15244;49.088;11.886;2023-03-19T10:48:31;95802.88;;;13.78;49.87
27425;BME280;15244;49.088;11.886;2023-03-19T10:53:36;95798.91;;;13.83;49.96
27425;BME280;15244;49.088;11.886;2023-03-19T10:58:38;95799.31;;;13.81;49.93
27425;BME280;15244;49.088;11.886;2023-03-19T11:08:54;95791.81;;;13.93;49.72
27425;BME280;15244;49.088;11.886;2023-03-19T11:13:56;95794.13;;;13.98;49.67
27425;BME280;15244;49.088;11.886;2023-03-19T11:18:58;95796.03;;;14.01;49.88
27425;BME280;15244;49.088;11.886;2023-03-19T11:24:01;95806.97;;;14.08;49.47
27425;BME280;15244;49.088;11.886;2023-03-19T11:29:04;95794.41;;;14.11;49.47
27425;BME280;15244;49.088;11.886;2023-03-19T11:34:27;95803.75;;;14.17;49.41
27425;BME280;15244;49.088;11.886;2023-03-19T11:45:39;95797.00;;;14.25;49.22
27425;BME280;15244;49.088;11.886;2023-03-19T11:50:24;95797.78;;;14.25;49.31
27425;BME280;15244;49.088;11.886;2023-03-19T11:55:36;95795.06;;;14.22;49.39
27425;BME280;15244;49.088;11.886;2023-03-19T12:00:47;95771.94;;;14.26;49.34
27425;BME280;15244;49.088;11.886;2023-03-19T12:06:23;95776.16;;;14.35;49.20
27425;BME280;15244;49.088;11.886;2023-03-19T12:12:09;95766.72;;;14.39;49.17
27425;BME280;15244;49.088;11.886;2023-03-19T12:17:32;95770.16;;;14.47;48.69
27425;BME280;15244;49.088;11.886;2023-03-19T12:33:45;95753.69;;;14.85;48.19
27425;BME280;15244;49.088;11.886;2023-03-19T12:38:53;95746.78;;;15.04;48.09
27425;BME280;15244;49.088;11.886;2023-03-19T12:44:20;95742.66;;;15.19;47.61
27425;BME280;15244;49.088;11.886;2023-03-19T12:49:24;95750.03;;;15.26;47.63
27425;BME280;15244;49.088;11.886;2023-03-19T12:54:35;95736.81;;;15.44;47.65
27425;BME280;15244;49.088;11.886;2023-03-19T12:59:51;95734.91;;;15.68;47.52
27425;BME280;15244;49.088;11.886;2023-03-19T13:04:58;95722.03;;;15.89;47.09
27425;BME280;15244;49.088;11.886;2023-03-19T13:10:06;95719.09;;;15.99;46.93
27425;BME280;15244;49.088;11.886;2023-03-19T13:15:18;95720.19;;;16.06;46.68
27425;BME280;15244;49.088;11.886;2023-03-19T13:25:54;95718.03;;;16.17;46.39
27425;BME280;15244;49.088;11.886;2023-03-19T13:31:17;95711.56;;;16.27;46.11
27425;BME280;15244;49.088;11.886;2023-03-19T13:36:19;95705.34;;;16.43;45.88
27425;BME280;15244;49.088;11.886;2023-03-19T13:46:40;95700.94;;;16.69;45.74
27425;BME280;15244;49.088;11.886;2023-03-19T13:51:48;95696.44;;;16.79;45.55
27425;BME280;15244;49.088;11.886;2023-03-19T14:07:26;95691.44;;;17.10;44.59
27425;BME280;15244;49.088;11.886;2023-03-19T14:12:32;95692.50;;;17.16;44.59
27425;BME280;15244;49.088;11.886;2023-03-19T14:17:52;95688.47;;;17.21;44.25
27425;BME280;15244;49.088;11.886;2023-03-19T14:28:09;95691.06;;;17.28;43.70
27425;BME280;15244;49.088;11.886;2023-03-19T14:33:42;95685.34;;;17.19;43.80
27425;BME280;15244;49.088;11.886;2023-03-19T14:38:59;95678.81;;;17.13;43.31
27425;BME280;15244;49.088;11.886;2023-03-19T14:54:44;95677.19;;;17.15;43.00
27425;BME280;15244;49.088;11.886;2023-03-19T14:59:49;95677.94;;;17.16;43.12
27425;BME280;15244;49.088;11.886;2023-03-19T15:04:52;95683.03;;;17.17;42.88
27425;BME280;15244;49.088;11.886;2023-03-19T15:10:01;95679.94;;;17.15;42.91
27425;BME280;15244;49.088;11.886;2023-03-19T15:20:39;95676.63;;;17.04;42.52
27425;BME280;15244;49.088;11.886;2023-03-19T15:25:46;95680.31;;;16.97;42.49
27425;BME280;15244;49.088;11.886;2023-03-19T15:30:56;95674.97;;;16.90;42.56
27425;BME280;15244;49.088;11.886;2023-03-19T15:41:21;95667.56;;;16.87;42.70
27425;BME280;15244;49.088;11.886;2023-03-19T15:46:33;95673.25;;;16.96;42.91
27425;BME280;15244;49.088;11.886;2023-03-19T15:51:39;95668.66;;;17.09;42.67
27425;BME280;15244;49.088;11.886;2023-03-19T15:56:44;95669.09;;;17.24;42.58
27425;BME280;15244;49.088;11.886;2023-03-19T16:01:45;95676.09;;;17.45;42.51
27425;BME280;15244;49.088;11.886;2023-03-19T16:06:50;95678.25;;;17.54;42.48
27425;BME280;15244;49.088;11.886;2023-03-19T16:11:56;95670.31;;;17.56;42.23
27425;BME280;15244;49.088;11.886;2023-03-19T16:17:02;95674.03;;;17.66;42.15
27425;BME280;15244;49.088;11.886;2023-03-19T16:22:15;95669.31;;;17.83;42.36
27425;BME280;15244;49.088;11.886;2023-03-19T16:27:42;95677.03;;;18.04;42.28
27425;BME280;15244;49.088;11.886;2023-03-19T16:32:56;95678.16;;;18.23;42.03
27425;BME280;15244;49.088;11.886;2023-03-19T16:38:21;95685.69;;;18.35;41.40
27425;BME280;15244;49.088;11.886;2023-03-19T16:43:32;95699.41;;;18.39;41.14
27425;BME280;15244;49.088;11.886;2023-03-19T16:48:37;95692.78;;;18.36;40.98
27425;BME280;15244;49.088;11.886;2023-03-19T16:53:39;95704.75;;;18.30;40.60
27425;BME280;15244;49.088;11.886;2023-03-19T16:58:42;95696.75;;;18.19;40.71
27425;BME280;15244;49.088;11.886;2023-03-19T17:03:47;95704.97;;;18.06;40.54
27425;BME280;15244;49.088;11.886;2023-03-19T17:08:49;95708.97;;;17.89;40.33
27425;BME280;15244;49.088;11.886;2023-03-19T17:13:58;95711.75;;;17.69;40.79
27425;BME280;15244;49.088;11.886;2023-03-19T17:19:01;95711.06;;;17.48;40.73
27425;BME280;15244;49.088;11.886;2023-03-19T17:24:32;95722.22;;;17.25;40.91
27425;BME280;15244;49.088;11.886;2023-03-19T17:29:35;95736.38;;;17.07;40.89
27425;BME280;15244;49.088;11.886;2023-03-19T17:34:39;95732.78;;;16.90;40.68
27425;BME280;15244;49.088;11.886;2023-03-19T17:39:43;95727.25;;;16.70;41.43
27425;BME280;15244;49.088;11.886;2023-03-19T17:44:46;95734.72;;;16.50;41.57
27425;BME280;15244;49.088;11.886;2023-03-19T17:49:50;95742.59;;;16.28;41.73
27425;BME280;15244;49.088;11.886;2023-03-19T17:54:52;95748.88;;;16.04;42.08
27425;BME280;15244;49.088;11.886;2023-03-19T17:59:54;95753.53;;;15.84;42.20
27425;BME280;15244;49.088;11.886;2023-03-19T18:04:56;95757.72;;;15.65;42.55
27425;BME280;15244;49.088;11.886;2023-03-19T18:09:58;95758.34;;;15.49;42.74
27425;BME280;15244;49.088;11.886;2023-03-19T18:14:59;95772.69;;;15.33;43.24
27425;BME280;15244;49.088;11.886;2023-03-19T18:20:02;95772.47;;;15.21;43.20
27425;BME280;15244;49.088;11.886;2023-03-19T18:25:16;95776.13;;;15.10;43.49
27425;BME280;15244;49.088;11.886;2023-03-19T18:30:22;95766.44;;;15.02;43.88
27425;BME280;15244;49.088;11.886;2023-03-19T18:35:35;95769.25;;;14.95;44.13
27425;BME280;15244;49.088;11.886;2023-03-19T18:40:37;95773.66;;;14.89;44.15
27425;BME280;15244;49.088;11.886;2023-03-19T18:45:41;95777.66;;;14.81;44.21
27425;BME280;15244;49.088;11.886;2023-03-19T18:50:46;95794.16;;;14.77;44.65
27425;BME280;15244;49.088;11.886;2023-03-19T18:55:52;95801.25;;;14.74;44.50
27425;BME280;15244;49.088;11.886;2023-03-19T19:00:56;95797.75;;;14.70;44.52
27425;BME280;15244;49.088;11.886;2023-03-19T19:05:58;95809.22;;;14.62;44.61
27425;BME280;15244;49.088;11.886;2023-03-19T19:11:04;95801.47;;;14.49;44.82
27425;BME280;15244;49.088;11.886;2023-03-19T19:16:18;95809.00;;;14.42;45.45
27425;BME280;15244;49.088;11.886;2023-03-19T19:21:20;95810.63;;;14.36;45.38
27425;BME280;15244;49.088;11.886;2023-03-19T19:26:26;95828.31;;;14.27;45.62
27425;BME280;15244;49.088;11.886;2023-03-19T19:31:31;95821.72;;;14.21;45.71
27425;BME280;15244;49.088;11.886;2023-03-19T19:36:39;95820.97;;;14.17;45.51
27425;BME280;15244;49.088;11.886;2023-03-19T19:41:40;95841.34;;;14.16;46.17
27425;BME280;15244;49.088;11.886;2023-03-19T19:46:44;95839.81;;;14.12;46.30
27425;BME280;15244;49.088;11.886;2023-03-19T19:51:48;95835.53;;;14.11;46.64
27425;BME280;15244;49.088;11.886;2023-03-19T19:56:50;95833.19;;;14.09;46.85
27425;BME280;15244;49.088;11.886;2023-03-19T20:01:52;95856.69;;;14.06;46.80
27425;BME280;15244;49.088;11.886;2023-03-19T20:06:57;95862.31;;;13.88;46.80
27425;BME280;15244;49.088;11.886;2023-03-19T20:11:59;95869.00;;;13.80;47.07
27425;BME280;15244;49.088;11.886;2023-03-19T20:17:14;95867.03;;;13.81;47.23
27425;BME280;15244;49.088;11.886;2023-03-19T20:22:16;95874.88;;;13.79;47.38
27425;BME280;15244;49.088;11.886;2023-03-19T20:27:22;95869.00;;;13.77;47.62
27425;BME280;15244;49.088;11.886;2023-03-19T20:32:35;95863.16;;;13.78;47.57
27425;BME280;15244;49.088;11.886;2023-03-19T20:37:37;95870.56;;;13.81;47.99
27425;BME280;15244;49.088;11.886;2023-03-19T20:42:40;95870.94;;;13.83;47.69
27425;BME280;15244;49.088;11.886;2023-03-19T20:47:43;95878.34;;;13.86;47.81
27425;BME280;15244;49.088;11.886;2023-03-19T20:52:45;95881.47;;;13.88;48.02
27425;BME280;15244;49.088;11.886;2023-03-19T20:57:49;95879.56;;;13.85;47.93
27425;BME280;15244;49.088;11.886;2023-03-19T21:03:00;95879.59;;;13.78;47.96
27425;BME280;15244;49.088;11.886;2023-03-19T21:08:15;95870.59;;;13.74;47.97
27425;BME280;15244;49.088;11.886;2023-03-19T21:13:18;95874.50;;;13.77;48.11
27425;BME280;15244;49.088;11.886;2023-03-19T21:18:19;95871.75;;;13.77;48.06
27425;BME280;15244;49.088;11.886;2023-03-19T21:23:35;95875.28;;;13.77;48.12
27425;BME280;15244;49.088;11.886;2023-03-19T21:28:41;95888.22;;;13.73;48.37
27425;BME280;15244;49.088;11.886;2023-03-19T21:33:49;95875.34;;;13.66;48.62
27425;BME280;15244;49.088;11.886;2023-03-19T21:38:52;95894.09;;;13.72;48.86
27425;BME280;15244;49.088;11.886;2023-03-19T21:43:55;95887.44;;;13.76;48.92
27425;BME280;15244;49.088;11.886;2023-03-19T21:49:02;95890.13;;;13.80;48.97
27425;BME280;15244;49.088;11.886;2023-03-19T21:54:04;95892.88;;;13.80;48.80
27425;BME280;15244;49.088;11.886;2023-03-19T21:59:14;95893.28;;;13.78;48.40
27425;BME280;15244;49.088;11.886;2023-03-19T22:04:19;95895.25;;;13.74;48.56
27425;BME280;15244;49.088;11.886;2023-03-19T22:09:25;95898.03;;;13.71;48.44
27425;BME280;15244;49.088;11.886;2023-03-19T22:14:29;95901.56;;;13.68;48.54
27425;BME280;15244;49.088;11.886;2023-03-19T22:19:31;95900.41;;;13.65;48.13
27425;BME280;15244;49.088;11.886;2023-03-19T22:24:35;95891.41;;;13.61;48.76
27425;BME280;15244;49.088;11.886;2023-03-19T22:29:38;95902.41;;;13.57;48.55
27425;BME280;15244;49.088;11.886;2023-03-19T22:34:43;95896.53;;;13.55;49.09
27425;BME280;15244;49.088;11.886;2023-03-19T22:39:48;95902.41;;;13.54;48.92
27425;BME280;15244;49.088;11.886;2023-03-19T22:44:52;95895.38;;;13.53;49.03
27425;BME280;15244;49.088;11.886;2023-03-19T22:49:54;95903.59;;;13.49;49.26
27425;BME280;15244;49.088;11.886;2023-03-19T22:54:56;95902.03;;;13.48;49.36
27425;BME280;15244;49.088;11.886;2023-03-19T22:59:58;95905.97;;;13.47;49.08
27425;BME280;15244;49.088;11.886;2023-03-19T23:05:00;95896.19;;;13.46;49.29
27425;BME280;15244;49.088;11.886;2023-03-19T23:10:13;95895.78;;;13.44;49.38
27425;BME280;15244;49.088;11.886;2023-03-19T23:15:18;95898.56;;;13.40;49.43
27425;BME280;15244;49.088;11.886;2023-03-19T23:20:22;95902.88;;;13.38;49.49
27425;BME280;15244;49.088;11.886;2023-03-19T23:25:28;95898.97;;;13.35;49.74
27425;BME280;15244;49.088;11.886;2023-03-19T23:30:33;95898.97;;;13.35;49.70
27425;BME280;15244;49.088;11.886;2023-03-19T23:35:37;95896.22;;;13.35;49.92
27425;BME280;15244;49.088;11.886;2023-03-19T23:40:41;95915.00;;;13.37;49.93
27425;BME280;15244;49.088;11.886;2023-03-19T23:45:47;95904.44;;;13.35;49.84
27425;BME280;15244;49.088;11.886;2023-03-19T23:50:55;95897.41;;;13.31;49.95
27425;BME280;15244;49.088;11.886;2023-03-19T23:56:03;95910.72;;;13.32;50.19
